Terminal Aerodrome Forecast
Issued by NWS

Home | Current Version | Previous Version | Text Only | Print | Product List | Glossary On
Versions: 1 2 3 4 5 6 7 8 9 10 11 12 13 14 15 16 17 18 19 20 21 22 23 24 25 26 27 28 29 30 31 32 33 34 35 36 37 38 39 40 41 42 43 44 45 46 47 48
000
FTUS45 KBOU 202100 AAB
TAFAPA
TAF AMD
KAPA 202100Z 2021/2118 19013KT P6SM FEW220
     FM210100 25010KT P6SM FEW220
     FM210700 28008KT P6SM SCT200
     FM210900 34014G20KT P6SM SCT100 BKN200
     FM211700 33018G25KT P6SM SCT250=

USA.gov is the U.S. government's official web portal to all federal, state and local government web resources and services.